createdAt,value
2023-04-17T00:01:05.322Z,54.71
2023-04-17T00:03:32.185Z,54.68
2023-04-17T00:05:58.870Z,54.84
2023-04-17T00:08:25.359Z,54.75
2023-04-17T00:11:04.134Z,54.67
2023-04-17T00:13:33.315Z,54.84
2023-04-17T00:15:59.740Z,54.79
2023-04-17T00:18:26.200Z,54.72
2023-04-17T00:20:53.887Z,54.66
2023-04-17T00:23:20.381Z,54.73
2023-04-17T00:25:46.877Z,54.43
2023-04-17T00:28:13.416Z,54.29
2023-04-17T00:30:39.887Z,54.45
2023-04-17T00:33:06.340Z,54.14
2023-04-17T00:35:32.810Z,54.20
2023-04-17T00:37:59.284Z,54.14
2023-04-17T00:40:25.857Z,54.00
2023-04-17T00:42:53.167Z,54.14
2023-04-17T00:45:20.613Z,53.77
2023-04-17T00:47:48.739Z,53.87
2023-04-17T00:50:15.268Z,53.83
2023-04-17T00:52:41.699Z,53.79
2023-04-17T00:55:08.529Z,53.77
2023-04-17T00:57:34.942Z,54.09
2023-04-17T01:00:01.430Z,54.01
2023-04-17T01:02:28.017Z,54.04
2023-04-17T01:04:54.629Z,53.78
2023-04-17T01:07:21.117Z,54.15
2023-04-17T01:09:47.670Z,53.90
2023-04-17T01:12:17.159Z,53.88
2023-04-17T01:14:43.608Z,53.61
2023-04-17T01:17:10.522Z,53.67
2023-04-17T01:19:36.969Z,53.56
2023-04-17T01:22:05.985Z,53.49
2023-04-17T01:24:32.444Z,53.27
2023-04-17T01:26:58.886Z,52.79
2023-04-17T01:29:27.874Z,52.75
2023-04-17T01:31:54.325Z,52.44
2023-04-17T01:34:20.797Z,52.35
2023-04-17T01:36:47.248Z,52.24
2023-04-17T01:39:13.918Z,52.52
2023-04-17T01:41:40.606Z,52.56
2023-04-17T01:44:07.023Z,52.73
2023-04-17T01:46:33.558Z,53.02
2023-04-17T01:49:00.075Z,52.90
2023-04-17T01:51:28.025Z,53.09
2023-04-17T01:53:54.515Z,53.21
2023-04-17T01:56:21.172Z,53.08
2023-04-17T01:58:47.638Z,53.19
2023-04-17T02:01:14.116Z,53.05
2023-04-17T02:03:40.599Z,53.18
2023-04-17T02:06:07.455Z,53.05
2023-04-17T02:08:34.621Z,53.18
2023-04-17T02:11:01.122Z,53.01
2023-04-17T02:13:27.720Z,53.07
2023-04-17T02:15:54.249Z,53.10
2023-04-17T02:18:21.232Z,52.99
2023-04-17T02:20:47.697Z,52.85
2023-04-17T02:23:14.151Z,53.11
2023-04-17T02:25:40.596Z,52.86
2023-04-17T02:28:08.011Z,53.07
2023-04-17T02:30:34.368Z,52.91
2023-04-17T02:33:01.095Z,53.02
2023-04-17T02:35:28.468Z,53.14
2023-04-17T02:37:54.931Z,53.00
2023-04-17T02:40:21.467Z,52.75
2023-04-17T02:42:47.866Z,52.79
2023-04-17T02:45:14.398Z,52.95
2023-04-17T02:47:40.871Z,53.03
2023-04-17T02:50:07.724Z,52.86
2023-04-17T02:52:34.253Z,52.78
2023-04-17T02:55:00.642Z,52.63
2023-04-17T02:57:27.101Z,52.80
2023-04-17T02:59:53.610Z,52.60
2023-04-17T03:02:22.976Z,52.61
2023-04-17T03:04:50.436Z,52.70
2023-04-17T03:07:20.599Z,52.84
2023-04-17T03:09:47.294Z,52.66
2023-04-17T03:12:14.391Z,52.83
2023-04-17T03:14:41.283Z,52.77
2023-04-17T03:17:08.057Z,52.91
2023-04-17T03:19:34.589Z,52.77
2023-04-17T03:22:01.929Z,52.88
2023-04-17T03:24:28.705Z,53.00
2023-04-17T03:26:56.123Z,52.97
2023-04-17T03:29:22.585Z,53.14
2023-04-17T03:31:49.068Z,53.11
2023-04-17T03:34:15.755Z,53.03
2023-04-17T03:36:42.361Z,53.25
2023-04-17T03:39:11.243Z,53.29
2023-04-17T03:41:38.734Z,53.10
2023-04-17T03:44:05.504Z,53.24
2023-04-17T03:46:31.969Z,53.19
2023-04-17T03:48:58.694Z,53.23
2023-04-17T03:51:28.365Z,53.24
2023-04-17T03:53:56.331Z,53.16
2023-04-17T03:56:25.552Z,53.08
2023-04-17T03:58:52.091Z,52.88
2023-04-17T04:01:18.541Z,52.74
2023-04-17T04:03:45.609Z,52.90
2023-04-17T04:06:12.494Z,52.91
2023-04-17T04:08:38.993Z,52.88
2023-04-17T04:11:05.575Z,52.91
2023-04-17T04:13:32.211Z,52.98
2023-04-17T04:15:58.856Z,52.93
2023-04-17T04:18:26.512Z,52.77
2023-04-17T04:20:53.110Z,52.85
2023-04-17T04:23:21.142Z,52.69
2023-04-17T04:25:51.746Z,52.70
2023-04-17T04:28:18.398Z,52.75
2023-04-17T04:30:50.929Z,52.80
2023-04-17T04:33:20.381Z,52.70
2023-04-17T04:35:47.694Z,52.62
2023-04-17T04:38:15.339Z,52.67
2023-04-17T04:40:44.935Z,52.67
2023-04-17T04:43:11.371Z,52.69
2023-04-17T04:45:37.766Z,52.46
2023-04-17T04:48:04.206Z,52.64
2023-04-17T04:50:31.090Z,52.48
2023-04-17T04:52:57.529Z,52.70
2023-04-17T04:55:27.049Z,52.70
2023-04-17T04:57:54.408Z,52.63
2023-04-17T05:00:21.353Z,52.80
2023-04-17T05:02:48.076Z,52.58
2023-04-17T05:05:14.887Z,52.46
2023-04-17T05:07:41.380Z,52.38
2023-04-17T05:10:08.115Z,52.54
2023-04-17T05:12:35.424Z,52.36
2023-04-17T05:15:03.226Z,52.26
2023-04-17T05:17:29.779Z,52.37
2023-04-17T05:19:56.210Z,52.16
2023-04-17T05:22:22.636Z,52.22
2023-04-17T05:24:49.121Z,52.26
2023-04-17T05:27:17.014Z,51.99
2023-04-17T05:29:43.546Z,52.06
2023-04-17T05:32:11.014Z,52.17
2023-04-17T05:34:38.428Z,52.20
2023-04-17T05:37:04.803Z,52.20
2023-04-17T05:39:31.208Z,52.23
2023-04-17T05:41:58.038Z,52.04
2023-04-17T05:44:24.567Z,52.05
2023-04-17T05:46:51.529Z,52.00
2023-04-17T05:49:18.076Z,52.14
2023-04-17T05:51:44.508Z,51.88
2023-04-17T05:54:10.946Z,51.61
2023-04-17T05:56:37.512Z,51.78
2023-04-17T05:59:04.047Z,51.59
2023-04-17T06:01:30.777Z,51.72
2023-04-17T06:03:57.578Z,51.64
2023-04-17T06:06:24.337Z,51.56
2023-04-17T06:08:52.582Z,51.72
2023-04-17T06:11:19.024Z,51.51
2023-04-17T06:13:46.956Z,51.46
2023-04-17T06:16:13.412Z,51.45
2023-04-17T06:18:40.586Z,51.49
2023-04-17T06:21:07.522Z,51.36
2023-04-17T06:23:33.945Z,51.53
2023-04-17T06:26:03.399Z,51.08
2023-04-17T06:28:29.952Z,51.07
2023-04-17T06:30:56.511Z,51.04
2023-04-17T06:33:24.516Z,50.82
2023-04-17T06:35:52.576Z,50.96
2023-04-17T06:38:18.985Z,50.44
2023-04-17T06:40:46.436Z,50.45
2023-04-17T06:43:12.910Z,49.65
2023-04-17T06:45:42.384Z,48.88
2023-04-17T06:48:09.029Z,47.66
2023-04-17T06:50:35.942Z,46.80
2023-04-17T06:53:02.459Z,46.39
2023-04-17T06:55:28.849Z,45.78
2023-04-17T06:57:55.961Z,45.23
2023-04-17T07:00:23.999Z,44.42
2023-04-17T07:02:51.501Z,44.16
2023-04-17T07:05:21.445Z,44.55
2023-04-17T07:07:48.598Z,44.91
2023-04-17T07:10:16.216Z,45.25
2023-04-17T07:12:42.750Z,45.37
2023-04-17T07:15:09.498Z,45.14
2023-04-17T07:17:37.384Z,45.58
2023-04-17T07:20:05.642Z,45.32
2023-04-17T07:22:32.129Z,45.04
2023-04-17T07:24:58.602Z,44.96
2023-04-17T07:27:26.815Z,44.63
2023-04-17T07:29:55.219Z,44.16
2023-04-17T07:32:22.162Z,44.27
2023-04-17T07:34:48.717Z,44.11
2023-04-17T07:37:15.814Z,43.90
2023-04-17T07:39:42.319Z,44.10
2023-04-17T07:42:09.192Z,43.86
2023-04-17T07:44:35.646Z,42.68
2023-04-17T07:47:02.328Z,42.93
2023-04-17T07:49:28.843Z,43.21
2023-04-17T07:51:55.273Z,43.31
2023-04-17T07:54:21.731Z,43.23
2023-04-17T07:56:49.527Z,43.71
2023-04-17T07:59:18.753Z,43.64
2023-04-17T08:01:46.499Z,43.38
2023-04-17T08:04:15.946Z,43.35
2023-04-17T08:06:42.500Z,43.61
2023-04-17T08:09:09.259Z,44.03
2023-04-17T08:11:45.831Z,43.97
2023-04-17T08:14:20.438Z,44.17
2023-04-17T08:16:47.600Z,44.60
2023-04-17T08:19:14.283Z,43.69
2023-04-17T08:21:41.315Z,43.54
2023-04-17T08:24:08.012Z,43.18
2023-04-17T08:26:34.824Z,43.34
2023-04-17T08:29:01.777Z,43.17
2023-04-17T08:31:29.265Z,42.97
2023-04-17T08:34:10.452Z,42.65
2023-04-17T08:36:40.411Z,42.46
2023-04-17T08:39:07.009Z,42.33
2023-04-17T08:41:37.417Z,41.61
2023-04-17T08:44:04.161Z,41.18
2023-04-17T08:46:31.030Z,40.82
2023-04-17T08:48:57.693Z,41.12
2023-04-17T08:51:24.942Z,41.31
2023-04-17T08:53:52.678Z,41.23
2023-04-17T08:56:19.218Z,40.93
2023-04-17T08:58:45.693Z,41.45
2023-04-17T09:01:12.763Z,42.08
2023-04-17T09:03:40.041Z,42.23
2023-04-17T09:06:06.762Z,42.83
2023-04-17T09:08:33.233Z,42.74
2023-04-17T09:10:59.673Z,43.28
2023-04-17T09:13:29.506Z,43.03
2023-04-17T09:16:07.227Z,43.24
2023-04-17T09:18:34.071Z,43.79
2023-04-17T09:21:01.189Z,44.15
2023-04-17T09:23:28.090Z,44.32
2023-04-17T09:26:10.384Z,44.84
2023-04-17T09:28:39.562Z,45.32
2023-04-17T09:31:08.266Z,45.63
2023-04-17T09:33:35.607Z,45.92
2023-04-17T09:36:22.364Z,46.24
2023-04-17T09:38:49.020Z,46.70
2023-04-17T09:41:28.948Z,46.75
2023-04-17T09:43:59.382Z,46.68
2023-04-17T09:46:35.716Z,46.72
2023-04-17T09:49:02.830Z,46.50
2023-04-17T09:51:29.293Z,46.84
2023-04-17T09:53:57.054Z,47.33
2023-04-17T09:56:24.585Z,47.38
2023-04-17T09:58:51.263Z,47.22
2023-04-17T10:01:18.130Z,47.39
2023-04-17T10:03:45.005Z,47.51
2023-04-17T10:06:12.180Z,47.97
2023-04-17T10:08:39.755Z,48.08
2023-04-17T10:11:06.412Z,48.46
2023-04-17T10:13:33.007Z,48.35
2023-04-17T10:15:59.583Z,48.48
2023-04-17T10:18:29.008Z,48.22
2023-04-17T10:20:55.596Z,48.44
2023-04-17T10:23:26.465Z,48.23
2023-04-17T10:26:14.500Z,48.06
2023-04-17T10:28:48.037Z,47.95
2023-04-17T10:31:14.573Z,47.90
2023-04-17T10:33:50.853Z,47.98
2023-04-17T10:36:36.380Z,48.04
2023-04-17T10:39:12.164Z,48.29
2023-04-17T10:41:57.567Z,48.20
2023-04-17T10:44:24.817Z,47.86
2023-04-17T10:46:51.285Z,48.13
2023-04-17T10:49:17.750Z,47.78
2023-04-17T10:51:44.246Z,47.92
2023-04-17T10:54:17.684Z,48.07
2023-04-17T10:56:46.431Z,47.98
2023-04-17T10:59:17.105Z,47.77
2023-04-17T11:01:50.121Z,47.80
2023-04-17T11:04:22.490Z,47.77
2023-04-17T11:06:49.176Z,47.98
2023-04-17T11:09:20.060Z,47.88
2023-04-17T11:11:48.482Z,47.80
2023-04-17T11:14:16.651Z,47.88
2023-04-17T11:16:44.222Z,47.71
2023-04-17T11:19:14.473Z,47.54
2023-04-17T11:22:01.376Z,47.66
2023-04-17T11:24:28.700Z,47.61
2023-04-17T11:26:56.430Z,47.74
2023-04-17T11:29:23.174Z,47.74
2023-04-17T11:31:51.333Z,47.94
2023-04-17T11:34:17.928Z,47.88
2023-04-17T11:36:52.243Z,47.72
2023-04-17T11:39:35.315Z,47.52
2023-04-17T11:42:05.410Z,47.63
2023-04-17T11:44:32.133Z,47.59
2023-04-17T11:46:59.860Z,47.62
2023-04-17T11:49:27.492Z,47.79
2023-04-17T11:51:54.536Z,47.78
2023-04-17T11:54:31.259Z,47.86
2023-04-17T11:57:18.439Z,47.64
2023-04-17T11:59:46.139Z,47.91
2023-04-17T12:02:12.899Z,47.85
2023-04-17T12:04:40.096Z,47.91
2023-04-17T12:07:07.541Z,47.78
2023-04-17T12:09:34.509Z,47.61
2023-04-17T12:12:04.108Z,47.32
2023-04-17T12:14:30.901Z,47.13
2023-04-17T12:16:57.331Z,47.01
2023-04-17T12:19:25.541Z,47.06
2023-04-17T12:21:52.596Z,47.19
2023-04-17T12:24:19.764Z,47.05
2023-04-17T12:26:53.391Z,46.70
2023-04-17T12:29:26.426Z,46.57
2023-04-17T12:32:03.300Z,46.68
2023-04-17T12:34:29.854Z,46.67
2023-04-17T12:36:56.383Z,46.95
2023-04-17T12:39:23.129Z,46.71
2023-04-17T12:41:52.408Z,46.97
2023-04-17T12:44:18.953Z,46.97
2023-04-17T12:46:46.234Z,46.96
2023-04-17T12:49:12.978Z,46.86
2023-04-17T12:51:39.695Z,47.16
2023-04-17T12:54:06.198Z,47.05
2023-04-17T12:56:32.980Z,47.25
2023-04-17T12:59:02.692Z,47.60
2023-04-17T13:01:29.812Z,47.87
2023-04-17T13:03:56.521Z,48.05
2023-04-17T13:06:23.126Z,48.08
2023-04-17T13:08:49.887Z,47.96
2023-04-17T13:11:16.627Z,47.91
2023-04-17T13:13:43.100Z,48.26
2023-04-17T13:16:09.866Z,48.71
2023-04-17T13:18:36.387Z,48.79
2023-04-17T13:21:02.975Z,49.23
2023-04-17T13:23:29.507Z,49.47
2023-04-17T13:25:55.984Z,49.38
2023-04-17T13:28:22.393Z,49.50
2023-04-17T13:30:48.935Z,49.12
2023-04-17T13:33:15.510Z,49.02
2023-04-17T13:35:41.893Z,48.98
2023-04-17T13:38:09.079Z,48.99
2023-04-17T13:40:36.396Z,49.32
2023-04-17T13:43:02.917Z,49.42
2023-04-17T13:45:29.336Z,49.38
2023-04-17T13:47:55.752Z,49.77
2023-04-17T13:50:22.333Z,49.98
2023-04-17T13:52:48.832Z,49.99
2023-04-17T13:55:17.369Z,49.80
2023-04-17T13:57:43.850Z,49.70
2023-04-17T14:00:10.992Z,49.63
2023-04-17T14:02:37.774Z,49.66
2023-04-17T14:05:05.068Z,49.71
2023-04-17T14:07:31.592Z,49.59
2023-04-17T14:10:00.395Z,49.90
2023-04-17T14:12:27.154Z,49.85
2023-04-17T14:14:54.281Z,49.68
2023-04-17T14:17:21.134Z,49.62
2023-04-17T14:19:47.549Z,49.64
2023-04-17T14:22:14.044Z,49.59
2023-04-17T14:24:40.492Z,49.31
2023-04-17T14:27:06.960Z,49.18
2023-04-17T14:29:33.435Z,49.03
2023-04-17T14:31:59.954Z,48.84
2023-04-17T14:34:26.348Z,48.68
2023-04-17T14:36:52.846Z,48.81
2023-04-17T14:39:19.840Z,48.66
2023-04-17T14:41:46.455Z,48.83
2023-04-17T14:44:13.243Z,48.69
2023-04-17T14:46:40.119Z,48.74
2023-04-17T14:49:06.800Z,48.97
2023-04-17T14:51:33.313Z,48.94
2023-04-17T14:53:59.829Z,48.92
2023-04-17T14:56:26.288Z,48.94
2023-04-17T14:58:52.859Z,48.87
2023-04-17T15:01:19.381Z,48.90
2023-04-17T15:03:48.544Z,48.56
2023-04-17T15:06:15.613Z,48.94
2023-04-17T15:08:42.223Z,48.90
2023-04-17T15:11:08.974Z,48.72
2023-04-17T15:13:36.628Z,49.05
2023-04-17T15:16:03.542Z,49.05
2023-04-17T15:18:30.281Z,48.87
2023-04-17T15:20:56.866Z,48.88
2023-04-17T15:23:25.336Z,48.97
2023-04-17T15:25:54.151Z,49.09
2023-04-17T15:28:21.242Z,49.07
2023-04-17T15:30:47.728Z,48.94
2023-04-17T15:33:14.227Z,48.83
2023-04-17T15:35:40.712Z,48.77
2023-04-17T15:40:32.300Z,48.84
2023-04-17T15:42:58.856Z,48.98
2023-04-17T15:45:26.241Z,48.72
2023-04-17T15:47:53.671Z,48.58
2023-04-17T15:50:21.125Z,48.56
2023-04-17T15:52:47.799Z,48.48
2023-04-17T15:55:14.710Z,48.79
2023-04-17T15:57:43.029Z,48.66
2023-04-17T16:00:10.083Z,48.80
2023-04-17T16:02:36.693Z,48.66
2023-04-17T16:05:05.698Z,48.69
2023-04-17T16:07:32.319Z,48.48
2023-04-17T16:09:58.942Z,48.82
2023-04-17T16:12:25.549Z,48.55
2023-04-17T16:14:52.019Z,48.68
2023-04-17T16:17:18.518Z,48.64
2023-04-17T16:19:44.991Z,48.62
2023-04-17T16:22:11.516Z,48.43
2023-04-17T16:24:37.976Z,48.43
2023-04-17T16:27:07.730Z,48.40
2023-04-17T16:29:34.173Z,48.52
2023-04-17T16:32:00.721Z,48.13
2023-04-17T16:34:27.262Z,48.26
2023-04-17T16:36:53.752Z,48.42
2023-04-17T16:39:20.235Z,48.19
2023-04-17T16:41:46.844Z,48.46
2023-04-17T16:44:13.633Z,48.22
2023-04-17T16:46:59.196Z,48.38
2023-04-17T16:49:26.955Z,48.39
2023-04-17T16:51:53.486Z,48.20
2023-04-17T16:54:22.040Z,48.39
2023-04-17T16:56:48.558Z,48.27
2023-04-17T16:59:15.058Z,48.35
2023-04-17T17:01:41.804Z,48.19
2023-04-17T17:04:08.457Z,48.30
2023-04-17T17:06:35.007Z,47.97
2023-04-17T17:09:03.086Z,48.06
2023-04-17T17:11:29.644Z,47.91
2023-04-17T17:13:56.446Z,48.12
2023-04-17T17:16:25.206Z,48.15
2023-04-17T17:18:51.694Z,47.84
2023-04-17T17:21:19.264Z,47.88
2023-04-17T17:23:45.776Z,47.89
2023-04-17T17:26:12.240Z,47.93
2023-04-17T17:28:38.662Z,48.07
2023-04-17T17:31:07.372Z,48.26
2023-04-17T17:33:34.457Z,47.87
2023-04-17T17:36:01.064Z,48.12
2023-04-17T17:38:32.700Z,48.17
2023-04-17T17:40:59.574Z,48.09
2023-04-17T17:43:28.105Z,48.02
2023-04-17T17:45:54.634Z,48.06
2023-04-17T17:48:21.321Z,48.00
2023-04-17T17:50:47.820Z,48.19
2023-04-17T17:53:16.320Z,47.94
2023-04-17T17:55:42.744Z,48.11
2023-04-17T17:58:09.257Z,47.94
2023-04-17T18:00:35.853Z,47.88
2023-04-17T18:03:04.070Z,47.96
2023-04-17T18:05:30.648Z,47.75
2023-04-17T18:07:57.173Z,47.72
2023-04-17T18:10:23.596Z,47.71
2023-04-17T18:12:50.065Z,47.50
2023-04-17T18:15:16.599Z,47.68
2023-04-17T18:17:43.075Z,47.84
2023-04-17T18:20:09.810Z,47.79
2023-04-17T18:22:38.389Z,47.59
2023-04-17T18:25:05.988Z,47.77
2023-04-17T18:27:32.673Z,47.55
2023-04-17T18:29:59.114Z,47.74
2023-04-17T18:32:25.740Z,47.77
2023-04-17T18:34:52.114Z,47.74
2023-04-17T18:37:18.671Z,47.75
2023-04-17T18:39:45.105Z,47.74
2023-04-17T18:42:11.718Z,47.67
2023-04-17T18:44:38.218Z,47.87
2023-04-17T18:47:07.827Z,47.52
2023-04-17T18:49:34.342Z,47.67
2023-04-17T18:52:00.813Z,47.79
2023-04-17T18:54:27.342Z,47.76
2023-04-17T18:56:53.785Z,47.80
2023-04-17T18:59:21.393Z,47.63
2023-04-17T19:01:48.049Z,47.93
2023-04-17T19:04:14.820Z,47.75
2023-04-17T19:06:42.936Z,47.90
2023-04-17T19:09:09.343Z,47.67
2023-04-17T19:11:35.799Z,47.68
2023-04-17T19:14:02.326Z,47.91
2023-04-17T19:16:28.827Z,48.05
2023-04-17T19:18:56.536Z,47.80
2023-04-17T19:21:23.057Z,47.98
2023-04-17T19:23:49.701Z,48.21
2023-04-17T19:26:17.194Z,48.01
2023-04-17T19:28:43.618Z,48.23
2023-04-17T19:31:10.091Z,48.36
2023-04-17T19:33:36.640Z,48.23
2023-04-17T19:36:03.360Z,48.19
2023-04-17T19:38:31.246Z,47.91
2023-04-17T19:41:28.721Z,48.25
2023-04-17T19:43:55.557Z,48.16
2023-04-17T19:46:22.883Z,48.47
2023-04-17T19:48:49.855Z,48.20
2023-04-17T19:51:36.746Z,48.17
2023-04-17T19:54:03.177Z,48.05
2023-04-17T19:56:49.600Z,48.36
2023-04-17T19:59:16.189Z,48.43
2023-04-17T20:01:44.349Z,48.28
2023-04-17T20:04:11.321Z,48.40
2023-04-17T20:06:39.674Z,48.35
2023-04-17T20:09:06.280Z,48.44
2023-04-17T20:11:32.750Z,48.41
2023-04-17T20:13:59.214Z,48.52
2023-04-17T20:16:25.850Z,48.56
2023-04-17T20:18:52.263Z,48.65
2023-04-17T20:21:18.861Z,48.46
2023-04-17T20:23:45.727Z,48.47
2023-04-17T20:26:12.134Z,48.68
2023-04-17T20:28:38.532Z,48.71
2023-04-17T20:31:05.194Z,48.63
2023-04-17T20:33:31.676Z,48.54
2023-04-17T20:35:58.165Z,48.57
2023-04-17T20:38:24.563Z,48.59
2023-04-17T20:40:51.139Z,48.69
2023-04-17T20:43:17.938Z,48.40
2023-04-17T20:45:44.412Z,48.44
2023-04-17T20:48:11.071Z,48.42
2023-04-17T20:50:37.555Z,48.64
2023-04-17T20:53:03.978Z,48.46
2023-04-17T20:55:30.317Z,48.43
2023-04-17T20:57:56.724Z,48.58
2023-04-17T21:00:23.223Z,48.60
2023-04-17T21:02:49.700Z,48.46
2023-04-17T21:05:16.190Z,48.40
2023-04-17T21:07:42.655Z,48.56
2023-04-17T21:10:09.047Z,48.74
2023-04-17T21:12:35.512Z,48.44
2023-04-17T21:15:02.191Z,48.46
2023-04-17T21:17:28.685Z,48.55
2023-04-17T21:19:56.292Z,48.46
2023-04-17T21:22:22.917Z,48.41
2023-04-17T21:24:49.506Z,48.49
2023-04-17T21:27:16.247Z,48.55
2023-04-17T21:29:42.787Z,48.45
2023-04-17T21:32:09.190Z,48.54
2023-04-17T21:34:35.674Z,48.33
2023-04-17T21:37:03.609Z,48.32
2023-04-17T21:39:32.905Z,48.30
2023-04-17T21:41:59.989Z,48.43
2023-04-17T21:44:26.537Z,48.41
2023-04-17T21:46:53.135Z,48.18
2023-04-17T21:49:19.724Z,48.27
2023-04-17T21:51:46.200Z,48.63
2023-04-17T21:54:20.986Z,48.18
2023-04-17T21:56:47.485Z,48.24
2023-04-17T21:59:14.256Z,48.20
2023-04-17T22:01:40.917Z,48.38
2023-04-17T22:04:07.511Z,48.42
2023-04-17T22:06:37.508Z,48.33
2023-04-17T22:09:06.658Z,48.21
2023-04-17T22:11:33.198Z,48.35
2023-04-17T22:13:59.746Z,48.27
2023-04-17T22:16:26.261Z,48.31
2023-04-17T22:18:52.745Z,48.29
2023-04-17T22:21:19.207Z,48.29
2023-04-17T22:23:45.644Z,48.27
2023-04-17T22:26:12.116Z,48.25
2023-04-17T22:28:38.517Z,48.35
2023-04-17T22:31:04.990Z,48.19
2023-04-17T22:33:31.450Z,48.39
2023-04-17T22:35:58.144Z,48.42
2023-04-17T22:38:24.694Z,48.41
2023-04-17T22:40:51.155Z,48.58
2023-04-17T22:43:17.624Z,48.38
2023-04-17T22:45:44.021Z,48.43
2023-04-17T22:48:10.473Z,48.23
2023-04-17T22:50:37.741Z,48.30
2023-04-17T22:53:04.275Z,48.26
2023-04-17T22:55:30.863Z,48.44
2023-04-17T22:57:57.311Z,48.44
2023-04-17T23:00:25.395Z,48.26
2023-04-17T23:02:51.922Z,48.18
2023-04-17T23:05:18.475Z,48.13
2023-04-17T23:07:45.393Z,48.32
2023-04-17T23:10:11.877Z,48.30
2023-04-17T23:12:38.251Z,48.11
2023-04-17T23:15:04.981Z,48.24
2023-04-17T23:17:31.449Z,48.21
2023-04-17T23:19:57.894Z,48.30
2023-04-17T23:22:24.300Z,48.13
2023-04-17T23:24:50.887Z,48.29
2023-04-17T23:27:17.335Z,48.35
2023-04-17T23:29:43.697Z,48.15
2023-04-17T23:32:10.150Z,48.19
2023-04-17T23:34:37.589Z,48.18
2023-04-17T23:37:04.102Z,48.36
2023-04-17T23:39:30.702Z,48.18
2023-04-17T23:41:57.688Z,48.29
2023-04-17T23:44:24.090Z,48.21
2023-04-17T23:46:51.118Z,48.34
2023-04-17T23:49:17.722Z,48.33
2023-04-17T23:51:44.216Z,48.19
2023-04-17T23:54:11.244Z,48.33
2023-04-17T23:56:37.988Z,48.20
2023-04-17T23:59:04.451Z,48.37
